Hovedside
METAR-TAF:

METAR-TAF

Lufthavner :

Berlevåg lufthavn

Berlevåg, Norge

breddegrad: 70-52N, lengdegrad: 029-02E, høyde over havet: 1 m

Gjeldene værobservasjon

Denne rapporten ble laget for 44 minutter siden, klokken 05:50 UTC
Vind 14 kt fra Nord-nordvest
Temperatur 3°C
Luftfuktighet 87%
Trykk 1007 hPa
Sikt 10 km eller mer
Spredte skyer i en høyde av 1500 ft
Brutte skyer i en høyde av 3900 ft

METAR: ENBV 150550Z 34014KT 9999 SCT015 BKN039 03/01 Q1007

Tid: 07:34 (06:34 UTC)

Varsel

Denne rapporten ble laget for 9 timer og 13 minutter siden, klokken 21:21 UTC
Varsel gyldig fra 14. klokken 21 UTC til 14. klokken 22 UTC
Vind 9 kt fra Vest-sørvest
Sikt 10 km eller mer
Få skyer i en høyde av 1000 ft
Brutte skyer i en høyde av 1800 ft
lett snø
Midlertidig
fra 14. klokken 21 UTC til 14. klokken 22 UTC
Sikt: 4000 m
i en høyde av 800 ft
lett snø

TAF: ENBV 142121Z 1421/1422 24009KT 9999 -SN FEW010 BKN018 TEMPO 1421/1422 4000 -SN VV008

Værobservasjoner og værvarsel for over 4000 flyplasser (METAR- og TAF-rapporter).

Tilgjengelige stasjoner er representert av de røde og gule prikkene på kartet.

Hold musepekeren over prikken for å se navnet på stasjonen.

Klikk så for å se værobservasjoner og -varsler.

For å forandre kartet kan du klikke på den grønne knappen med svart kryss for å zoome inn, på den grønne knappen med strek for å zoome ut, eller på de grønne pilene for å se tilstøtende kart.


METAR-TAF: